Bookmark and Share
Track history (hours):
 

Hanjin Nagoya

Last reported at 2014-Mar-10 16:33 UTC. Time now 2014-Apr-20 13:31 UTC.
Position N 01°12' E 103°38'.
Warning: this ship's position is 40 days out of date.

Length 290 m; draft 10.3 m.

Type: Cargo ship. MMSI: 356465000.

NotesDate/timePositionNaut miles runAvg speedWind from/ knotsBaromVisibWave heightAir tempDewpointWater temp
2014-Mar-10 16:33N 01°12' E 103°38'9 9.1
2014-Mar-10 15:33N 01°17' E 103°45'1 0.5
2014-Mar-10 14:28N 01°17' E 103°46'0 0.0
2014-Mar-10 13:31N 01°17' E 103°46'0 0.0
2014-Mar-10 12:31N 01°17' E 103°46'0 0.0
2014-Mar-10 11:31N 01°17' E 103°46'0 0.0
2014-Mar-10 10:31N 01°17' E 103°46'0 0.0
2014-Mar-10 09:31N 01°17' E 103°46'0 0.0
2014-Mar-10 08:33N 01°17' E 103°46'0 0.0
2014-Mar-10 07:33N 01°17' E 103°46'0 0.0
2014-Mar-10 06:33N 01°17' E 103°46'0 0.0
2014-Mar-10 05:30N 01°17' E 103°46'0 0.0
2014-Mar-10 04:33N 01°17' E 103°46'0 0.3
2014-Mar-10 03:33N 01°17' E 103°45'3 3.5
2014-Mar-10 02:33N 01°14' E 103°47'0 0.2
2014-Mar-10 01:33N 01°14' E 103°47'4 4.4
2014-Mar-10 00:33N 01°13' E 103°51'7 6.7
2014-Mar-09 23:33N 01°15' E 103°58'  
2014-Mar-06 16:24N 22°21' E 113°55'6 6.9
2014-Mar-06 15:33N 22°27' E 113°54'0 0.2
2014-Mar-06 14:33N 22°27' E 113°53'0 0.0
2014-Mar-06 13:33N 22°27' E 113°53'0 0.0
2014-Mar-06 12:33N 22°27' E 113°53'0 0.0
2014-Mar-06 11:33N 22°27' E 113°53'0 0.0
2014-Mar-06 10:27N 22°27' E 113°53'0 0.0
2014-Mar-06 09:33N 22°27' E 113°53'0 0.0
2014-Mar-06 08:33N 22°27' E 113°53'0 0.1
2014-Mar-06 07:33N 22°27' E 113°53'8 7.7
2014-Mar-06 06:33N 22°21' E 113°58'1010.2
2014-Mar-06 05:33N 22°15' E 114°08'152 4.4
2014-Mar-04 19:13N 22°43' E 116°49'16810.7
2014-Mar-04 03:33N 24°27' E 119°12'1010.4
2014-Mar-04 02:33N 24°35' E 119°20'35111.2
2014-Mar-02 19:09N 29°28' E 122°57'124 9.1
2014-Mar-02 05:33N 31°17' E 121°50'9 9.0
2014-Mar-02 04:33N 31°20' E 121°40'0 0.1
2014-Mar-02 03:28N 31°20' E 121°40'0 0.0
2014-Mar-02 02:29N 31°20' E 121°40'0 0.0
2014-Mar-02 01:23N 31°20' E 121°40'0 0.0
2014-Mar-02 00:29N 31°20' E 121°40'0 0.0
2014-Mar-01 23:29N 31°20' E 121°40'0 0.0
2014-Mar-01 22:17N 31°20' E 121°40'0 0.0
2014-Mar-01 20:29N 31°20' E 121°40'0 0.0
2014-Mar-01 19:12N 31°20' E 121°40'0 0.0
2014-Mar-01 18:30N 31°20' E 121°40'0 0.0
2014-Mar-01 17:24N 31°20' E 121°40'0 0.0
2014-Mar-01 15:33N 31°20' E 121°40'0 0.0
2014-Mar-01 14:23N 31°20' E 121°40'0 0.0
2014-Mar-01 13:11N 31°20' E 121°40'0 0.0
2014-Mar-01 12:12N 31°20' E 121°40'0 0.0
2014-Mar-01 11:32N 31°20' E 121°40'0 0.0
2014-Mar-01 10:32N 31°20' E 121°40'0 0.0
2014-Mar-01 09:20N 31°20' E 121°40'0 0.0
2014-Mar-01 08:08N 31°20' E 121°40'0 0.0
2014-Mar-01 07:32N 31°20' E 121°40'0 0.0
2014-Mar-01 06:26N 31°20' E 121°40'0 0.0
2014-Mar-01 05:20N 31°20' E 121°40'1 1.7
2014-Mar-01 04:33N 31°20' E 121°41'8 8.3
2014-Mar-01 03:32N 31°17' E 121°50'  

Dump ship's entire track history

sailing weather and tide predictions

Hanjin Nagoya — HOET — position and weather